Nailsea, United Kingdom
Current Conditions -  °F | °C
As of 7:20 AM on Saturday 29 Nov 2014 (Local Time) from EGGD Reporting Station
Moderate Fog Moderate Fog  
Wind Chill: 42°   Ceiling: 100
Heat Index: 46°   Visibility: 0.15mi
Dew Point: 46°   Wind: 8mph
Humidity: 100%   Direction: 40°NE
Pressure: 29.77"   Gusts: NA
Location:  51.43°N, 2.76°W
Report Text: EGGD 290720Z 04007KT 0250 R09/0550 FG OVC001 08/08 Q1008
Loading
Personal Weather Stations






























Interactive Weather Map New forecast layout! Learn more

10-Day Weather Forecast

Advertisements
Track Severe Weather on mobile